Time;durP1;ratioP1;P1;durP2;ratioP2;P2;SDS_P1;SDS_P2;PMS_P1;PMS_P2;Temp;Humidity;BMP_temperature;BMP_pressure;BME280_temperature;BME280_humidity;BME280_pressure;Samples;Min_cycle;Max_cycle;Signal;HPM_P1;HPM_P2
2023/04/18 00:02:21;;;;;;;14.27;8.50;;;12.20;99.10;;;;;;6220879;23;20424;-86
2023/04/18 00:04:49;;;;;;;13.80;8.05;;;12.20;98.60;;;;;;6196537;23;20082;-85
2023/04/18 00:07:16;;;;;;;11.77;8.43;;;12.20;98.40;;;;;;6220893;23;20435;-85
2023/04/18 00:09:42;;;;;;;14.73;8.32;;;12.10;98.10;;;;;;6247333;23;20004;-86
2023/04/18 00:12:09;;;;;;;11.57;7.75;;;12.00;97.70;;;;;;6220361;23;20008;-85
2023/04/18 00:14:36;;;;;;;11.68;7.95;;;12.00;97.50;;;;;;6220528;23;20028;-84
2023/04/18 00:17:08;;;;;;;14.20;7.80;;;12.00;96.90;;;;;;6221723;23;20000;-86
2023/04/18 00:19:35;;;;;;;13.27;7.25;;;11.90;96.80;;;;;;6248199;23;20000;-91
2023/04/18 00:22:01;;;;;;;12.65;7.97;;;11.90;96.50;;;;;;6221955;23;20007;-91
2023/04/18 00:24:27;;;;;;;13.85;8.75;;;11.80;96.30;;;;;;6171595;23;20339;-84
2023/04/18 00:27:00;;;;;;;13.23;8.27;;;11.80;96.30;;;;;;6195118;23;20007;-84
2023/04/18 00:29:26;;;;;;;13.98;8.10;;;11.70;96.00;;;;;;6220436;23;20004;-84
2023/04/18 00:32:05;;;;;;;12.23;8.02;;;11.70;96.00;;;;;;6220325;23;20008;-84
2023/04/18 00:34:30;;;;;;;10.63;7.60;;;11.60;95.70;;;;;;6194822;23;20420;-86
2023/04/18 00:36:56;;;;;;;14.20;8.07;;;11.60;95.80;;;;;;6171395;23;20019;-92
2023/04/18 00:39:21;;;;;;;11.68;7.57;;;11.60;95.50;;;;;;6171396;23;20050;-92
2023/04/18 00:41:47;;;;;;;14.25;7.68;;;11.60;95.50;;;;;;6186053;23;20031;-93
2023/04/18 00:44:13;;;;;;;11.98;7.05;;;11.50;95.30;;;;;;6136650;23;20005;-86
2023/04/18 00:46:38;;;;;;;12.25;7.80;;;11.50;95.50;;;;;;6184563;23;20045;-85
2023/04/18 00:49:05;;;;;;;12.18;8.35;;;11.50;95.50;;;;;;6160801;23;20004;-83
2023/04/18 00:51:32;;;;;;;12.90;7.82;;;11.40;95.40;;;;;;6184674;23;20011;-84
2023/04/18 00:54:05;;;;;;;11.40;7.65;;;11.40;95.20;;;;;;6184777;23;20005;-84
2023/04/18 00:56:31;;;;;;;14.07;7.88;;;11.30;95.20;;;;;;6186360;23;20040;-93
2023/04/18 00:58:57;;;;;;;10.98;7.35;;;11.30;95.40;;;;;;6162231;23;20012;-93
2023/04/18 01:01:22;;;;;;;16.20;8.75;;;11.20;95.30;;;;;;6161219;23;20067;-93
2023/04/18 01:03:48;;;;;;;11.60;7.47;;;11.30;95.20;;;;;;6136428;23;20444;-92
2023/04/18 01:06:14;;;;;;;10.80;7.38;;;11.20;95.40;;;;;;6136194;23;20008;-85
2023/04/18 01:08:41;;;;;;;13.70;8.13;;;11.20;95.30;;;;;;6186187;23;20001;-92
2023/04/18 01:11:07;;;;;;;11.85;7.75;;;11.10;95.50;;;;;;6161716;23;20432;-92
2023/04/18 01:13:35;;;;;;;12.50;7.28;;;11.10;95.60;;;;;;6137010;23;20032;-92
2023/04/18 01:16:01;;;;;;;12.27;7.68;;;11.00;95.50;;;;;;6137338;23;20491;-92
2023/04/18 01:18:30;;;;;;;14.88;7.90;;;11.00;95.50;;;;;;6139820;23;20005;-92
2023/04/18 01:20:58;;;;;;;11.32;7.82;;;10.90;95.80;;;;;;6186907;23;20012;-93
2023/04/18 01:23:24;;;;;;;11.25;7.35;;;10.90;95.80;;;;;;6184855;23;20005;-87
2023/04/18 01:25:50;;;;;;;12.88;7.68;;;10.90;95.70;;;;;;6184775;23;20080;-87
2023/04/18 01:28:20;;;;;;;10.77;7.50;;;10.80;95.50;;;;;;6184794;23;20055;-86
2023/04/18 01:30:45;;;;;;;11.40;7.57;;;10.80;95.40;;;;;;6186092;23;20023;-86
2023/04/18 01:33:15;;;;;;;12.77;7.55;;;10.80;95.60;;;;;;6137994;23;20036;-86
2023/04/18 01:35:40;;;;;;;10.88;7.32;;;10.70;95.90;;;;;;6173260;23;20017;-87
2023/04/18 01:38:07;;;;;;;11.55;7.35;;;10.70;95.90;;;;;;6172265;23;20382;-87
2023/04/18 01:40:33;;;;;;;11.30;7.43;;;10.60;96.00;;;;;;6203572;23;20052;-86
2023/04/18 01:42:59;;;;;;;11.65;7.57;;;10.60;95.90;;;;;;6230265;23;20012;-87
2023/04/18 01:45:25;;;;;;;12.88;8.07;;;10.60;96.00;;;;;;6183295;23;20027;-86
2023/04/18 01:47:50;;;;;;;10.45;7.25;;;10.60;95.90;;;;;;6232166;23;20110;-87
2023/04/18 01:50:16;;;;;;;14.00;7.18;;;10.50;96.00;;;;;;6224448;23;20027;-86
2023/04/18 01:52:42;;;;;;;12.85;7.65;;;10.50;96.20;;;;;;6223750;23;20036;-86
2023/04/18 01:55:08;;;;;;;18.58;8.13;;;10.50;96.20;;;;;;6222329;23;20004;-86
2023/04/18 01:57:36;;;;;;;10.32;7.40;;;10.40;96.20;;;;;;6196729;23;20496;-84
2023/04/18 02:00:07;;;;;;;13.43;7.85;;;10.40;96.10;;;;;;6197944;23;20097;-82
2023/04/18 02:02:32;;;;;;;11.30;7.70;;;10.40;96.20;;;;;;6196556;23;20008;-83
2023/04/18 02:04:58;;;;;;;11.02;7.07;;;10.30;96.20;;;;;;6197062;23;20004;-83
2023/04/18 02:07:24;;;;;;;13.15;7.90;;;10.30;96.40;;;;;;6196262;23;20008;-83
2023/04/18 02:09:49;;;;;;;12.15;7.53;;;10.30;96.30;;;;;;6196459;23;20006;-83
2023/04/18 02:12:15;;;;;;;11.70;7.40;;;10.20;96.20;;;;;;6196704;23;20446;-85
2023/04/18 02:14:41;;;;;;;12.27;7.28;;;10.20;96.40;;;;;;6196781;23;20009;-86
2023/04/18 02:17:06;;;;;;;11.98;7.57;;;10.20;96.30;;;;;;6196912;23;20008;-86
2023/04/18 02:19:32;;;;;;;10.40;7.38;;;10.20;96.30;;;;;;6222869;23;20012;-86
2023/04/18 02:21:58;;;;;;;11.65;7.35;;;10.10;96.30;;;;;;6197926;23;20008;-93
2023/04/18 02:24:23;;;;;;;11.88;7.40;;;10.10;96.50;;;;;;6173478;23;20004;-92
2023/04/18 02:26:49;;;;;;;11.90;7.53;;;10.10;96.60;;;;;;6173652;23;20032;-92
2023/04/18 02:29:15;;;;;;;11.32;7.50;;;10.10;96.70;;;;;;6229936;23;19984;-91
2023/04/18 02:31:41;;;;;;;10.48;7.60;;;10.00;96.70;;;;;;6199691;22;20019;-93
2023/04/18 02:34:07;;;;;;;11.75;7.75;;;10.00;96.90;;;;;;6241587;23;20007;-85
2023/04/18 02:36:33;;;;;;;10.35;7.10;;;10.00;97.10;;;;;;6197070;23;20004;-87
2023/04/18 02:38:59;;;;;;;12.80;7.38;;;10.00;96.90;;;;;;6221711;23;20075;-87
2023/04/18 02:41:24;;;;;;;11.93;8.05;;;9.90;96.80;;;;;;6222503;23;20008;-86
2023/04/18 02:43:50;;;;;;;13.20;7.82;;;9.90;96.70;;;;;;6222458;23;20012;-87
2023/04/18 02:46:16;;;;;;;12.90;7.75;;;9.90;96.70;;;;;;6196835;23;20005;-87
2023/04/18 02:48:42;;;;;;;15.60;7.82;;;9.90;96.80;;;;;;6172038;23;20008;-87
2023/04/18 02:51:08;;;;;;;12.45;7.68;;;9.80;97.00;;;;;;6222962;23;20324;-88
2023/04/18 02:53:34;;;;;;;11.02;7.75;;;9.80;97.00;;;;;;6248807;23;20015;-87
2023/04/18 02:56:00;;;;;;;11.95;7.50;;;9.70;97.20;;;;;;6196305;23;20012;-86
2023/04/18 02:58:26;;;;;;;11.38;8.13;;;9.70;97.30;;;;;;6170822;23;20112;-88
2023/04/18 03:00:54;;;;;;;12.50;7.43;;;9.70;97.40;;;;;;6171487;23;20008;-86
2023/04/18 03:03:19;;;;;;;10.35;7.40;;;9.70;97.50;;;;;;6221487;23;20038;-86
2023/04/18 03:05:45;;;;;;;14.48;7.50;;;9.70;97.70;;;;;;6196014;23;20042;-85
2023/04/18 03:08:11;;;;;;;12.68;7.82;;;9.60;97.50;;;;;;6196325;23;20005;-85
2023/04/18 03:10:38;;;;;;;12.10;7.50;;;9.60;97.50;;;;;;6246426;23;20004;-85
2023/04/18 03:13:03;;;;;;;12.55;7.75;;;9.60;97.60;;;;;;6196365;23;20000;-85
2023/04/18 03:15:32;;;;;;;12.57;7.93;;;9.60;97.80;;;;;;6247881;23;20051;-85
2023/04/18 03:17:58;;;;;;;11.80;8.07;;;9.50;98.00;;;;;;6196865;23;20012;-86
2023/04/18 03:20:24;;;;;;;9.90;7.20;;;9.50;98.10;;;;;;6196425;23;20057;-84
2023/04/18 03:22:50;;;;;;;17.17;8.20;;;9.50;98.20;;;;;;6195814;23;20000;-83
2023/04/18 03:25:16;;;;;;;14.90;8.20;;;9.50;98.30;;;;;;6195975;23;20011;-83
2023/04/18 03:27:42;;;;;;;13.63;8.13;;;9.50;98.30;;;;;;6247911;23;20587;-83
2023/04/18 03:30:09;;;;;;;13.20;8.43;;;9.40;98.40;;;;;;6171366;23;20012;-83
2023/04/18 03:32:35;;;;;;;11.70;8.00;;;9.40;98.50;;;;;;6196833;23;20019;-83
2023/04/18 03:35:01;;;;;;;12.50;7.85;;;9.40;98.70;;;;;;6221150;23;20008;-82
2023/04/18 03:37:27;;;;;;;11.38;8.10;;;9.40;98.90;;;;;;6247927;23;20075;-86
2023/04/18 03:39:54;;;;;;;12.32;8.05;;;9.40;98.80;;;;;;6197517;23;20082;-87
2023/04/18 03:42:19;;;;;;;11.55;7.60;;;9.30;98.90;;;;;;6196876;23;20019;-87
2023/04/18 03:44:45;;;;;;;12.15;8.27;;;9.30;98.80;;;;;;6198635;23;20453;-87
2023/04/18 03:47:11;;;;;;;13.52;8.00;;;9.30;99.00;;;;;;6246762;23;20087;-87
2023/04/18 03:49:37;;;;;;;11.98;8.13;;;9.30;99.10;;;;;;6196241;23;20011;-86
2023/04/18 03:52:03;;;;;;;13.10;7.80;;;9.30;98.90;;;;;;6196590;23;20011;-92
2023/04/18 03:54:29;;;;;;;13.38;8.05;;;9.30;99.10;;;;;;6222783;23;20036;-91
2023/04/18 03:56:56;;;;;;;14.20;8.98;;;9.30;99.10;;;;;;6173161;23;20091;-91
2023/04/18 03:59:22;;;;;;;12.88;7.53;;;9.20;99.30;;;;;;6174046;23;20020;-92
2023/04/18 04:01:47;;;;;;;11.75;8.02;;;9.20;99.30;;;;;;6197359;23;20061;-86
2023/04/18 04:04:14;;;;;;;15.48;8.77;;;9.20;99.50;;;;;;6171101;23;20419;-84
2023/04/18 04:06:40;;;;;;;13.32;8.25;;;9.20;99.70;;;;;;6171330;23;20027;-82
2023/04/18 04:09:06;;;;;;;11.30;8.07;;;9.20;99.80;;;;;;6173323;23;20011;-86
2023/04/18 04:11:31;;;;;;;12.77;8.10;;;9.20;99.90;;;;;;6196600;23;20024;-87
2023/04/18 04:13:57;;;;;;;16.08;8.77;;;9.20;99.90;;;;;;6221936;23;20380;-87
2023/04/18 04:16:23;;;;;;;13.73;8.57;;;9.20;99.90;;;;;;6248848;23;20427;-86
2023/04/18 04:19:01;;;;;;;10.85;8.30;;;9.20;99.90;;;;;;6248855;23;20395;-86
2023/04/18 04:21:26;;;;;;;12.48;8.15;;;9.20;99.90;;;;;;6196294;23;20421;-86
2023/04/18 04:23:52;;;;;;;13.48;8.57;;;9.20;99.90;;;;;;6196410;23;20008;-86
2023/04/18 04:26:21;;;;;;;13.43;9.13;;;9.20;99.90;;;;;;6196646;23;20005;-92
2023/04/18 04:28:48;;;;;;;13.27;7.95;;;9.20;99.90;;;;;;6199048;23;20065;-91
2023/04/18 04:31:15;;;;;;;13.60;9.23;;;9.20;99.90;;;;;;6198331;23;20431;-84
2023/04/18 04:33:42;;;;;;;12.68;8.27;;;9.20;99.90;;;;;;6221099;23;20030;-84
2023/04/18 04:36:08;;;;;;;11.75;7.80;;;9.20;99.90;;;;;;6221109;23;20095;-84
2023/04/18 04:38:40;;;;;;;13.25;7.72;;;9.20;99.90;;;;;;6196304;23;20008;-83
2023/04/18 04:41:06;;;;;;;12.38;7.57;;;9.20;99.90;;;;;;6196183;23;20031;-83
2023/04/18 04:43:33;;;;;;;11.48;7.05;;;9.20;99.90;;;;;;6197615;23;20020;-93
2023/04/18 04:46:02;;;;;;;12.70;8.20;;;9.20;99.90;;;;;;6223092;23;20011;-92
2023/04/18 04:48:28;;;;;;;11.45;7.82;;;9.20;99.90;;;;;;6222433;23;20075;-93
2023/04/18 04:50:56;;;;;;;13.25;7.55;;;9.20;99.90;;;;;;6222420;23;20000;-92
2023/04/18 04:53:37;;;;;;;11.70;7.68;;;9.20;99.90;;;;;;6220641;23;20327;-84
2023/04/18 04:56:03;;;;;;;;;;;9.20;99.90;;;;;;6171381;23;20016;-83
2023/04/18 04:58:29;;;;;;;12.50;7.32;;;9.20;99.90;;;;;;6220744;23;19910;-83
2023/04/18 05:00:55;;;;;;;9.73;7.28;;;9.20;99.90;;;;;;6221435;23;20069;-83
2023/04/18 05:03:21;;;;;;;11.25;7.13;;;9.20;99.90;;;;;;6170116;23;20039;-83
2023/04/18 05:05:47;;;;;;;12.02;7.20;;;9.20;99.90;;;;;;6194837;23;20423;-84
2023/04/18 05:08:13;;;;;;;10.95;7.22;;;9.20;99.90;;;;;;6195285;23;20022;-83
2023/04/18 05:10:39;;;;;;;12.20;8.00;;;9.20;99.90;;;;;;6194550;23;20008;-83
2023/04/18 05:13:05;;;;;;;12.20;8.40;;;9.20;99.90;;;;;;6169806;23;20008;-84
2023/04/18 05:15:43;;;;;;;12.45;8.50;;;9.20;99.90;;;;;;6198621;23;20097;-87
2023/04/18 05:18:09;;;;;;;13.35;8.13;;;9.10;99.90;;;;;;6222468;22;20008;-89
2023/04/18 05:20:36;;;;;;;14.45;8.55;;;9.20;99.90;;;;;;6223309;22;20011;-90
2023/04/18 05:23:01;;;;;;;12.25;8.00;;;9.20;99.90;;;;;;6222297;22;20020;-91
2023/04/18 05:25:28;;;;;;;11.48;7.95;;;9.20;99.90;;;;;;6222036;23;20013;-91
2023/04/18 05:27:55;;;;;;;11.40;7.35;;;9.10;99.90;;;;;;6209482;23;20004;-86
2023/04/18 05:30:21;;;;;;;15.40;8.65;;;9.10;99.90;;;;;;6196024;23;20471;-86
2023/04/18 05:32:46;;;;;;;12.35;8.23;;;9.10;99.90;;;;;;6196965;23;20027;-88
2023/04/18 05:35:12;;;;;;;14.25;8.38;;;9.10;99.90;;;;;;6171007;23;20074;-87
2023/04/18 05:37:38;;;;;;;12.73;7.97;;;9.20;99.90;;;;;;6221002;23;20014;-86
2023/04/18 05:40:04;;;;;;;13.00;7.78;;;9.20;99.90;;;;;;6195779;23;20099;-84
2023/04/18 05:42:30;;;;;;;12.23;8.15;;;9.10;99.90;;;;;;6194518;23;20024;-83
2023/04/18 05:44:56;;;;;;;12.60;8.40;;;9.20;99.90;;;;;;6220637;23;20016;-86
2023/04/18 05:47:25;;;;;;;10.25;7.75;;;9.20;99.90;;;;;;6220457;23;20035;-85
2023/04/18 05:49:51;;;;;;;11.93;8.32;;;9.10;99.90;;;;;;6198005;23;20315;-92
2023/04/18 05:52:16;;;;;;;13.07;7.93;;;9.20;99.90;;;;;;6221961;23;20058;-91
2023/04/18 05:54:42;;;;;;;11.50;7.82;;;9.20;99.90;;;;;;6221921;23;20043;-92
2023/04/18 05:57:08;;;;;;;13.27;7.95;;;9.20;99.90;;;;;;6195097;23;20091;-84
2023/04/18 05:59:34;;;;;;;13.65;8.55;;;9.20;99.90;;;;;;6170061;23;20004;-84
2023/04/18 06:01:59;;;;;;;11.93;8.13;;;9.20;99.90;;;;;;6194516;23;20099;-84
2023/04/18 06:04:25;;;;;;;13.05;8.23;;;9.30;99.90;;;;;;6219589;23;20066;-84
2023/04/18 06:06:51;;;;;;;14.50;7.55;;;9.30;99.90;;;;;;6207906;23;20004;-85
2023/04/18 06:09:19;;;;;;;12.48;8.15;;;9.30;99.90;;;;;;6213645;23;20067;-85
2023/04/18 06:11:57;;;;;;;13.77;8.27;;;9.30;99.90;;;;;;6189971;23;20000;-85
2023/04/18 06:14:23;;;;;;;15.07;8.93;;;9.40;99.90;;;;;;6210258;23;20039;-85
2023/04/18 06:16:58;;;;;;;12.32;8.55;;;9.40;99.90;;;;;;6262311;23;20036;-85
2023/04/18 06:19:24;;;;;;;12.65;8.27;;;9.40;99.90;;;;;;6233626;23;20000;-86
2023/04/18 06:21:58;;;;;;;14.93;8.68;;;9.40;99.90;;;;;;6258592;23;20027;-86
2023/04/18 06:24:24;;;;;;;11.93;8.27;;;9.50;99.90;;;;;;6194604;23;20020;-83
2023/04/18 06:26:49;;;;;;;10.63;7.93;;;9.40;99.90;;;;;;6194894;23;20007;-83
2023/04/18 06:29:16;;;;;;;13.25;8.30;;;9.50;99.90;;;;;;6170429;23;20015;-83
2023/04/18 06:31:44;;;;;;;11.65;7.50;;;9.50;99.90;;;;;;6245878;23;20372;-83
2023/04/18 06:34:10;;;;;;;11.32;7.75;;;9.50;99.90;;;;;;6198329;23;20011;-85
2023/04/18 06:36:35;;;;;;;12.50;8.38;;;9.50;99.90;;;;;;6222658;23;20084;-85
2023/04/18 06:39:01;;;;;;;12.80;7.68;;;9.60;99.90;;;;;;6198047;23;20019;-84
2023/04/18 06:41:27;;;;;;;13.30;8.38;;;9.60;99.90;;;;;;6171274;23;20008;-84
2023/04/18 06:43:52;;;;;;;11.57;8.35;;;9.60;99.90;;;;;;6196421;23;20023;-85
2023/04/18 06:46:18;;;;;;;11.63;7.60;;;9.60;99.90;;;;;;6196006;23;20420;-86
2023/04/18 06:48:44;;;;;;;13.25;8.15;;;9.60;99.90;;;;;;6170970;23;20434;-84
2023/04/18 06:51:09;;;;;;;10.88;7.45;;;9.60;99.90;;;;;;6195725;23;20008;-84
2023/04/18 06:53:35;;;;;;;12.25;7.78;;;9.60;99.90;;;;;;6221335;23;20004;-84
2023/04/18 06:56:01;;;;;;;10.40;7.30;;;9.60;99.90;;;;;;6220772;23;20004;-87
2023/04/18 06:58:27;;;;;;;13.05;7.78;;;9.70;99.90;;;;;;6173606;23;20004;-93
2023/04/18 07:00:53;;;;;;;12.55;7.80;;;9.70;99.90;;;;;;6221454;22;19984;-93
2023/04/18 07:03:18;;;;;;;14.23;7.00;;;9.70;99.90;;;;;;6197488;23;20007;-93
2023/04/18 07:05:44;;;;;;;12.05;7.25;;;9.70;99.90;;;;;;6197066;22;20003;-93
2023/04/18 07:08:11;;;;;;;10.65;6.97;;;9.70;99.90;;;;;;6223042;22;19984;-94
2023/04/18 07:10:37;;;;;;;12.65;7.93;;;9.80;99.90;;;;;;6219492;23;20118;-93
2023/04/18 07:13:06;;;;;;;10.40;7.20;;;9.70;99.90;;;;;;6206294;23;20091;-90
2023/04/18 07:15:38;;;;;;;11.15;7.10;;;9.80;99.90;;;;;;6185341;23;20014;-94
2023/04/18 07:18:03;;;;;;;11.70;6.55;;;9.80;99.90;;;;;;6219379;23;20024;-92
2023/04/18 07:20:30;;;;;;;8.20;6.28;;;9.80;99.90;;;;;;6215222;23;20019;-93
2023/04/18 07:22:56;;;;;;;9.18;6.63;;;9.90;99.90;;;;;;6183164;23;20055;-94
2023/04/18 07:25:22;;;;;;;11.10;7.07;;;9.90;99.90;;;;;;6216716;23;20071;-93
2023/04/18 07:27:49;;;;;;;10.00;6.70;;;10.00;99.90;;;;;;6193276;23;20009;-93
2023/04/18 07:30:15;;;;;;;11.63;6.72;;;10.00;99.90;;;;;;6214275;23;20387;-95
2023/04/18 07:32:41;;;;;;;9.15;6.35;;;10.10;99.90;;;;;;6181897;23;20012;-95
2023/04/18 07:35:07;;;;;;;9.60;6.35;;;10.10;99.90;;;;;;6202189;23;20004;-93
2023/04/18 07:37:37;;;;;;;10.82;6.28;;;10.20;99.90;;;;;;6222973;23;20007;-92
2023/04/18 07:40:04;;;;;;;10.50;6.80;;;10.20;99.90;;;;;;6218732;23;20009;-92
2023/04/18 07:42:29;;;;;;;9.25;6.93;;;10.30;99.90;;;;;;6220818;22;20011;-93
2023/04/18 07:44:58;;;;;;;8.95;6.68;;;10.30;99.90;;;;;;6247884;22;20052;-91
2023/04/18 07:47:25;;;;;;;9.98;6.75;;;10.40;99.90;;;;;;6228031;23;20031;-89
2023/04/18 07:49:51;;;;;;;9.13;5.75;;;10.40;99.90;;;;;;6204799;23;20411;-89
2023/04/18 07:52:17;;;;;;;8.23;6.13;;;10.50;99.90;;;;;;6185693;23;20031;-89
2023/04/18 07:54:42;;;;;;;9.60;5.97;;;10.50;99.90;;;;;;6197242;23;20016;-88
2023/04/18 07:57:09;;;;;;;8.50;6.00;;;10.60;99.90;;;;;;6217278;23;20000;-92
2023/04/18 07:59:35;;;;;;;9.23;5.90;;;10.60;99.90;;;;;;6187133;23;20039;-91
2023/04/18 08:02:01;;;;;;;8.77;5.97;;;10.60;99.90;;;;;;6208544;23;20000;-94
2023/04/18 08:04:29;;;;;;;8.85;6.18;;;10.70;99.90;;;;;;6269659;22;20004;-88
2023/04/18 08:06:56;;;;;;;9.10;6.40;;;10.70;99.90;;;;;;6221543;22;20005;-88
2023/04/18 08:09:21;;;;;;;8.88;6.22;;;10.80;99.90;;;;;;6220618;22;19992;-86
2023/04/18 08:11:58;;;;;;;8.30;5.95;;;10.90;99.90;;;;;;6220300;23;20011;-89
2023/04/18 08:14:24;;;;;;;8.63;6.05;;;10.90;99.90;;;;;;6239395;23;20008;-94
2023/04/18 08:16:49;;;;;;;8.77;6.03;;;10.90;99.90;;;;;;6200311;23;20438;-94
2023/04/18 08:19:27;;;;;;;8.38;5.80;;;11.00;99.90;;;;;;6199163;23;20008;-93
2023/04/18 08:21:53;;;;;;;9.52;6.88;;;11.00;99.90;;;;;;6173164;23;20073;-86
2023/04/18 08:24:19;;;;;;;9.15;6.03;;;11.00;99.90;;;;;;6196359;23;20012;-89
2023/04/18 08:26:45;;;;;;;8.63;5.93;;;11.10;99.90;;;;;;6172356;23;20403;-89
2023/04/18 08:29:11;;;;;;;8.63;5.85;;;11.10;99.90;;;;;;6199308;23;20004;-92
2023/04/18 08:31:38;;;;;;;9.27;6.60;;;11.20;99.90;;;;;;6223008;23;20000;-93
2023/04/18 08:34:04;;;;;;;11.65;5.82;;;11.20;99.90;;;;;;6173554;23;20324;-90
2023/04/18 08:36:30;;;;;;;9.55;6.45;;;11.30;99.90;;;;;;6174921;23;20074;-91
2023/04/18 08:38:57;;;;;;;9.15;6.30;;;11.40;99.90;;;;;;6219054;23;20030;-91
2023/04/18 08:41:23;;;;;;;10.80;6.45;;;11.40;99.90;;;;;;6222387;23;20015;-94
2023/04/18 08:43:49;;;;;;;9.50;6.30;;;11.40;99.90;;;;;;6196966;23;20056;-92
2023/04/18 08:46:16;;;;;;;8.60;5.93;;;11.50;99.90;;;;;;6222391;23;20012;-94
2023/04/18 08:48:42;;;;;;;7.88;6.03;;;11.50;99.90;;;;;;6203453;23;20381;-94
2023/04/18 08:51:08;;;;;;;9.25;6.22;;;11.60;99.90;;;;;;6223668;23;20004;-95
2023/04/18 08:53:35;;;;;;;8.43;6.07;;;11.60;99.90;;;;;;6257825;23;20448;-91
2023/04/18 08:56:01;;;;;;;8.18;5.70;;;11.60;99.90;;;;;;6201303;23;20004;-85
2023/04/18 08:58:32;;;;;;;8.40;5.68;;;11.70;99.90;;;;;;6221653;23;20308;-85
2023/04/18 09:00:58;;;;;;;9.30;5.55;;;11.70;99.90;;;;;;6249689;23;20070;-92
2023/04/18 09:03:38;;;;;;;8.80;5.40;;;11.70;99.90;;;;;;6172714;23;20447;-88
2023/04/18 09:06:17;;;;;;;8.57;5.65;;;11.80;99.90;;;;;;6221741;23;20004;-88
2023/04/18 09:08:57;;;;;;;8.35;5.30;;;11.90;99.90;;;;;;6221955;23;20027;-92
2023/04/18 09:11:28;;;;;;;7.55;5.05;;;11.90;99.90;;;;;;6249970;23;20003;-92
2023/04/18 09:13:56;;;;;;;8.23;4.93;;;11.90;99.90;;;;;;6223261;23;20051;-91
2023/04/18 09:16:22;;;;;;;6.53;4.65;;;11.90;99.90;;;;;;6198230;23;20004;-88
2023/04/18 09:19:11;;;;;;;7.97;5.47;;;12.00;99.90;;;;;;6222756;23;20000;-89
2023/04/18 09:21:43;;;;;;;9.05;5.18;;;12.00;99.90;;;;;;6222086;23;20012;-89
2023/04/18 09:24:23;;;;;;;7.50;5.05;;;12.00;99.90;;;;;;6198117;23;20046;-93
2023/04/18 09:26:50;;;;;;;7.97;4.93;;;12.00;99.90;;;;;;6230466;23;20016;-95
2023/04/18 09:29:21;;;;;;;8.65;5.43;;;12.00;99.90;;;;;;6223405;23;20000;-95
2023/04/18 09:32:05;;;;;;;;;;;12.00;99.90;;;;;;6199674;23;20007;-95
2023/04/18 09:34:32;;;;;;;10.02;5.25;;;12.10;99.90;;;;;;6222755;23;19900;-94
2023/04/18 09:37:10;;;;;;;7.32;5.40;;;12.10;99.90;;;;;;6198436;23;20026;-95
2023/04/18 09:39:38;;;;;;;10.18;5.38;;;12.10;99.90;;;;;;6226807;23;20386;-88
2023/04/18 09:42:04;;;;;;;7.80;5.43;;;12.10;99.90;;;;;;6243002;23;20012;-91
2023/04/18 09:44:30;;;;;;;6.28;4.50;;;12.10;99.90;;;;;;6218660;23;20031;-91
2023/04/18 09:46:56;;;;;;;8.43;5.35;;;12.10;99.90;;;;;;6219617;23;20027;-93
2023/04/18 09:49:22;;;;;;;6.85;4.65;;;12.20;99.90;;;;;;6270377;23;19996;-92
2023/04/18 09:51:50;;;;;;;7.13;5.18;;;12.20;99.90;;;;;;6219008;23;19992;-93
2023/04/18 09:54:17;;;;;;;9.07;4.72;;;12.30;99.90;;;;;;6244652;23;19988;-92
2023/04/18 09:56:45;;;;;;;7.97;5.50;;;12.40;99.90;;;;;;6244599;23;20004;-94
2023/04/18 09:59:11;;;;;;;7.60;5.07;;;12.50;99.90;;;;;;6239038;23;20012;-91
2023/04/18 10:01:40;;;;;;;7.38;5.20;;;12.60;99.90;;;;;;6223778;23;20060;-91
2023/04/18 10:04:06;;;;;;;7.57;5.18;;;12.60;99.90;;;;;;6207154;23;20008;-93
2023/04/18 10:06:38;;;;;;;7.13;4.68;;;12.60;99.90;;;;;;6208375;23;20008;-91
2023/04/18 10:09:08;;;;;;;8.38;5.82;;;12.70;99.90;;;;;;6261783;23;20016;-94
2023/04/18 10:11:34;;;;;;;8.68;5.47;;;12.70;99.90;;;;;;6225846;23;20000;-94
2023/04/18 10:14:03;;;;;;;9.27;5.15;;;12.80;99.90;;;;;;6199869;23;20019;-94
2023/04/18 10:16:30;;;;;;;8.48;5.25;;;12.80;99.90;;;;;;6225001;23;20015;-89
2023/04/18 10:19:22;;;;;;;7.95;4.80;;;12.90;99.90;;;;;;6176280;23;20035;-94
2023/04/18 10:22:15;;;;;;;8.50;5.03;;;13.00;99.90;;;;;;6200401;23;20087;-91
2023/04/18 10:24:49;;;;;;;7.18;4.93;;;13.10;99.90;;;;;;6207374;23;20423;-93
2023/04/18 10:27:38;;;;;;;6.68;5.20;;;13.30;99.90;;;;;;6229119;23;20487;-92
2023/04/18 10:30:06;;;;;;;8.93;5.20;;;13.40;99.90;;;;;;6240762;23;20091;-91
2023/04/18 10:32:32;;;;;;;6.75;5.00;;;13.50;99.90;;;;;;6186398;23;20016;-94
2023/04/18 10:35:01;;;;;;;8.77;5.20;;;13.60;99.90;;;;;;6177957;23;20020;-95
2023/04/18 10:37:28;;;;;;;11.52;5.90;;;13.60;99.90;;;;;;6200987;23;20084;-94
2023/04/18 10:39:59;;;;;;;6.55;5.18;;;13.60;99.90;;;;;;6177304;23;20037;-95
2023/04/18 10:42:46;;;;;;;7.95;5.60;;;13.60;99.90;;;;;;6189583;23;20025;-94
2023/04/18 10:45:26;;;;;;;7.22;5.47;;;13.60;99.90;;;;;;6193728;23;20005;-94
2023/04/18 10:48:28;;;;;;;8.73;6.18;;;13.60;99.90;;;;;;6165151;23;20009;-94
2023/04/18 10:51:19;;;;;;;7.80;5.45;;;13.60;99.90;;;;;;6094981;23;20006;-95
2023/04/18 10:53:50;;;;;;;;;;;13.60;99.90;;;;;;6145880;23;20016;-95
2023/04/18 10:56:16;;;;;;;8.75;5.45;;;13.50;99.90;;;;;;6213634;23;19908;-94
2023/04/18 10:58:52;;;;;;;8.05;5.70;;;13.50;99.90;;;;;;6164126;23;20025;-93
2023/04/18 11:01:29;;;;;;;8.95;5.65;;;13.50;99.90;;;;;;6214242;23;19989;-94
2023/04/18 11:03:56;;;;;;;8.45;6.07;;;13.60;99.90;;;;;;6206311;23;20013;-95
2023/04/18 11:06:24;;;;;;;8.02;5.85;;;13.60;99.90;;;;;;6187865;23;20005;-86
2023/04/18 11:08:50;;;;;;;8.10;5.53;;;13.60;99.90;;;;;;6186557;23;20080;-88
2023/04/18 11:11:15;;;;;;;7.82;6.15;;;13.70;99.90;;;;;;6137583;23;20009;-88
2023/04/18 11:14:06;;;;;;;8.93;6.30;;;13.70;99.90;;;;;;6162628;23;20009;-86
2023/04/18 11:16:33;;;;;;;9.18;6.13;;;13.70;99.90;;;;;;6187770;23;20005;-87
2023/04/18 11:22:14;;;;;;;8.60;6.03;;;13.80;99.90;;;;;;6183458;23;20005;-88
2023/04/18 11:24:41;;;;;;;9.45;6.35;;;13.80;99.90;;;;;;6213525;23;20001;-87
2023/04/18 11:27:23;;;;;;;10.15;6.88;;;13.80;99.90;;;;;;6192119;23;20029;-96
2023/04/18 11:29:52;;;;;;;9.88;7.07;;;13.80;99.90;;;;;;6190954;23;20015;-90
2023/04/18 11:32:20;;;;;;;8.30;6.15;;;13.90;99.90;;;;;;6163593;23;20013;-90
2023/04/18 11:34:46;;;;;;;10.88;6.32;;;13.80;99.90;;;;;;6188087;23;20005;-91
2023/04/18 11:37:31;;;;;;;12.13;6.50;;;13.90;99.90;;;;;;6187312;23;20020;-91
2023/04/18 11:39:57;;;;;;;7.53;5.95;;;13.90;99.90;;;;;;6167506;23;20032;-89
2023/04/18 11:42:27;;;;;;;9.50;7.00;;;13.90;99.90;;;;;;6186088;23;20352;-89
2023/04/18 11:44:53;;;;;;;8.82;6.63;;;14.00;99.90;;;;;;6222785;23;20091;-92
2023/04/18 11:47:23;;;;;;;8.98;6.70;;;14.00;99.90;;;;;;6217778;23;20428;-91
2023/04/18 11:49:55;;;;;;;9.57;6.85;;;14.00;99.90;;;;;;6218417;23;20035;-94
2023/04/18 11:52:22;;;;;;;9.38;7.18;;;14.00;99.90;;;;;;6218612;23;20028;-94
2023/04/18 11:54:47;;;;;;;9.52;6.93;;;14.00;99.90;;;;;;6194033;23;20005;-91
2023/04/18 11:57:23;;;;;;;10.10;6.93;;;14.00;99.90;;;;;;6217076;23;20012;-89
2023/04/18 12:00:02;;;;;;;10.60;7.68;;;14.10;99.90;;;;;;6216590;23;20008;-87
2023/04/18 12:02:43;;;;;;;9.88;7.15;;;14.00;99.90;;;;;;6195534;23;20018;-94
2023/04/18 12:05:10;;;;;;;10.70;7.72;;;14.00;99.90;;;;;;6218409;23;20087;-89
2023/04/18 12:07:38;;;;;;;9.40;7.55;;;14.00;99.90;;;;;;6191642;23;20069;-88
2023/04/18 12:10:06;;;;;;;10.82;7.68;;;14.00;99.90;;;;;;6191109;23;20005;-88
2023/04/18 12:12:32;;;;;;;10.15;8.02;;;14.00;99.90;;;;;;6216600;23;20088;-92
2023/04/18 12:15:05;;;;;;;10.40;8.20;;;14.00;99.90;;;;;;6216430;23;20023;-88
2023/04/18 12:17:31;;;;;;;10.48;8.27;;;14.00;99.90;;;;;;6216735;23;20058;-89
2023/04/18 12:20:01;;;;;;;11.63;8.13;;;14.10;99.90;;;;;;6192589;23;20008;-89
2023/04/18 12:22:40;;;;;;;10.93;8.60;;;14.10;99.90;;;;;;6215630;23;20016;-92
2023/04/18 12:25:23;;;;;;;10.05;8.68;;;14.10;99.90;;;;;;6214804;23;20009;-91
2023/04/18 12:27:57;;;;;;;12.18;9.02;;;14.10;99.90;;;;;;6216796;23;20005;-92
2023/04/18 12:30:26;;;;;;;11.85;8.63;;;14.00;99.90;;;;;;6217552;23;20011;-92
2023/04/18 12:32:54;;;;;;;11.57;8.50;;;14.00;99.90;;;;;;6217308;23;20009;-90
2023/04/18 12:35:20;;;;;;;12.68;8.95;;;14.10;99.90;;;;;;6192657;23;20091;-90
2023/04/18 12:37:49;;;;;;;12.30;9.60;;;14.10;99.90;;;;;;6218256;23;20008;-89
2023/04/18 12:40:15;;;;;;;12.90;9.88;;;14.20;99.90;;;;;;6217183;23;20408;-90
2023/04/18 12:42:45;;;;;;;12.90;9.23;;;14.30;99.90;;;;;;6186985;23;20013;-88
2023/04/18 12:45:14;;;;;;;11.05;9.57;;;14.40;99.90;;;;;;6188843;23;20428;-90
2023/04/18 12:47:41;;;;;;;12.15;9.40;;;14.50;99.90;;;;;;6188314;23;20005;-92
2023/04/18 12:50:10;;;;;;;13.15;9.68;;;14.60;99.90;;;;;;6187880;23;19997;-91
2023/04/18 12:52:39;;;;;;;12.10;9.52;;;14.70;99.90;;;;;;6187951;23;20088;-92
2023/04/18 12:55:06;;;;;;;10.68;8.90;;;14.80;99.90;;;;;;6163469;23;20012;-92